sensor_id;sensor_type;location;lat;lon;timestamp;temperature;humidity
53204;DHT22;39086;54.424;18.456;2023-08-06T00:00:21;15.60;99.90
53204;DHT22;39086;54.424;18.456;2023-08-06T00:01:24;15.60;99.90
53204;DHT22;39086;54.424;18.456;2023-08-06T00:02:27;15.70;99.90
53204;DHT22;39086;54.424;18.456;2023-08-06T00:03:30;15.60;99.90
53204;DHT22;39086;54.424;18.456;2023-08-06T00:04:32;15.60;99.90
53204;DHT22;39086;54.424;18.456;2023-08-06T00:05:36;15.60;99.90
53204;DHT22;39086;54.424;18.456;2023-08-06T00:06:38;15.60;99.90
53204;DHT22;39086;54.424;18.456;2023-08-06T00:07:41;15.60;99.90
53204;DHT22;39086;54.424;18.456;2023-08-06T00:08:43;15.50;99.90
53204;DHT22;39086;54.424;18.456;2023-08-06T00:09:46;15.60;99.90
53204;DHT22;39086;54.424;18.456;2023-08-06T00:10:48;15.60;99.90
53204;DHT22;39086;54.424;18.456;2023-08-06T00:11:51;15.60;99.90
53204;DHT22;39086;54.424;18.456;2023-08-06T00:12:53;15.60;99.90
53204;DHT22;39086;54.424;18.456;2023-08-06T00:13:56;15.60;99.90
53204;DHT22;39086;54.424;18.456;2023-08-06T00:15:00;15.60;99.90
53204;DHT22;39086;54.424;18.456;2023-08-06T00:16:10;15.50;99.90
53204;DHT22;39086;54.424;18.456;2023-08-06T00:17:12;15.50;99.90
53204;DHT22;39086;54.424;18.456;2023-08-06T00:18:16;15.50;99.90
53204;DHT22;39086;54.424;18.456;2023-08-06T00:19:18;15.60;99.90
53204;DHT22;39086;54.424;18.456;2023-08-06T00:20:21;15.50;99.90
53204;DHT22;39086;54.424;18.456;2023-08-06T00:21:23;15.50;99.90
53204;DHT22;39086;54.424;18.456;2023-08-06T00:22:26;15.50;99.90
53204;DHT22;39086;54.424;18.456;2023-08-06T00:23:28;15.50;99.90
53204;DHT22;39086;54.424;18.456;2023-08-06T00:24:31;15.50;99.90
53204;DHT22;39086;54.424;18.456;2023-08-06T00:25:33;15.50;99.90
53204;DHT22;39086;54.424;18.456;2023-08-06T00:26:36;15.50;99.90
53204;DHT22;39086;54.424;18.456;2023-08-06T00:27:38;15.50;99.90
53204;DHT22;39086;54.424;18.456;2023-08-06T00:28:41;15.50;99.90
53204;DHT22;39086;54.424;18.456;2023-08-06T00:29:43;15.50;99.90
53204;DHT22;39086;54.424;18.456;2023-08-06T00:30:52;15.50;99.90
53204;DHT22;39086;54.424;18.456;2023-08-06T00:31:54;15.50;99.90
53204;DHT22;39086;54.424;18.456;2023-08-06T00:36:29;15.50;99.90
53204;DHT22;39086;54.424;18.456;2023-08-06T00:37:32;15.50;99.90
53204;DHT22;39086;54.424;18.456;2023-08-06T00:38:34;15.50;99.90
53204;DHT22;39086;54.424;18.456;2023-08-06T00:39:37;15.50;99.90
53204;DHT22;39086;54.424;18.456;2023-08-06T00:40:39;15.40;99.90
53204;DHT22;39086;54.424;18.456;2023-08-06T00:42:44;15.40;99.90
53204;DHT22;39086;54.424;18.456;2023-08-06T00:43:48;15.40;99.90
53204;DHT22;39086;54.424;18.456;2023-08-06T00:44:50;15.40;99.90
53204;DHT22;39086;54.424;18.456;2023-08-06T00:45:54;15.40;99.90
53204;DHT22;39086;54.424;18.456;2023-08-06T00:46:57;15.40;99.90
53204;DHT22;39086;54.424;18.456;2023-08-06T00:48:00;15.40;99.90
53204;DHT22;39086;54.424;18.456;2023-08-06T00:49:03;15.40;99.90
53204;DHT22;39086;54.424;18.456;2023-08-06T00:51:10;15.30;99.90
53204;DHT22;39086;54.424;18.456;2023-08-06T00:52:13;15.40;99.90
53204;DHT22;39086;54.424;18.456;2023-08-06T00:53:16;15.50;99.90
53204;DHT22;39086;54.424;18.456;2023-08-06T00:54:19;15.40;99.90
53204;DHT22;39086;54.424;18.456;2023-08-06T00:55:21;15.40;99.90
53204;DHT22;39086;54.424;18.456;2023-08-06T00:57:27;15.30;99.90
53204;DHT22;39086;54.424;18.456;2023-08-06T00:58:30;15.40;99.90
53204;DHT22;39086;54.424;18.456;2023-08-06T00:59:32;15.40;99.90
53204;DHT22;39086;54.424;18.456;2023-08-06T01:00:36;15.40;99.90
53204;DHT22;39086;54.424;18.456;2023-08-06T01:01:39;15.40;99.90
53204;DHT22;39086;54.424;18.456;2023-08-06T01:03:46;15.30;99.90
53204;DHT22;39086;54.424;18.456;2023-08-06T01:04:49;15.40;99.90
53204;DHT22;39086;54.424;18.456;2023-08-06T01:05:51;15.50;99.90
53204;DHT22;39086;54.424;18.456;2023-08-06T01:07:02;15.40;99.90
53204;DHT22;39086;54.424;18.456;2023-08-06T01:09:27;15.40;99.90
53204;DHT22;39086;54.424;18.456;2023-08-06T01:11:47;15.40;99.90
53204;DHT22;39086;54.424;18.456;2023-08-06T01:13:01;15.50;99.90
53204;DHT22;39086;54.424;18.456;2023-08-06T01:15:18;15.40;99.90
53204;DHT22;39086;54.424;18.456;2023-08-06T01:16:23;15.50;99.90
53204;DHT22;39086;54.424;18.456;2023-08-06T01:17:28;15.50;99.90
53204;DHT22;39086;54.424;18.456;2023-08-06T01:18:32;15.50;99.90
53204;DHT22;39086;54.424;18.456;2023-08-06T01:19:35;15.50;99.90
53204;DHT22;39086;54.424;18.456;2023-08-06T01:21:42;15.40;99.90
53204;DHT22;39086;54.424;18.456;2023-08-06T01:22:45;15.50;99.90
53204;DHT22;39086;54.424;18.456;2023-08-06T01:24:52;15.40;99.90
53204;DHT22;39086;54.424;18.456;2023-08-06T01:25:59;15.50;99.90
53204;DHT22;39086;54.424;18.456;2023-08-06T01:27:10;15.50;99.90
53204;DHT22;39086;54.424;18.456;2023-08-06T01:29:28;15.40;99.90
53204;DHT22;39086;54.424;18.456;2023-08-06T01:31:39;15.40;99.90
53204;DHT22;39086;54.424;18.456;2023-08-06T01:32:45;15.50;99.90
53204;DHT22;39086;54.424;18.456;2023-08-06T01:33:49;15.40;99.90
53204;DHT22;39086;54.424;18.456;2023-08-06T01:34:54;15.50;99.90
53204;DHT22;39086;54.424;18.456;2023-08-06T01:35:59;15.40;99.90
53204;DHT22;39086;54.424;18.456;2023-08-06T01:38:06;15.40;99.90
53204;DHT22;39086;54.424;18.456;2023-08-06T01:39:08;15.50;99.90
53204;DHT22;39086;54.424;18.456;2023-08-06T01:40:12;15.40;99.90
53204;DHT22;39086;54.424;18.456;2023-08-06T01:41:15;15.40;99.90
53204;DHT22;39086;54.424;18.456;2023-08-06T01:43:20;15.40;99.90
53204;DHT22;39086;54.424;18.456;2023-08-06T01:44:23;15.50;99.90
53204;DHT22;39086;54.424;18.456;2023-08-06T01:45:26;15.40;99.90
53204;DHT22;39086;54.424;18.456;2023-08-06T01:46:28;15.50;99.90
53204;DHT22;39086;54.424;18.456;2023-08-06T01:47:31;15.40;99.90
53204;DHT22;39086;54.424;18.456;2023-08-06T01:48:33;15.40;99.90
53204;DHT22;39086;54.424;18.456;2023-08-06T01:49:35;15.40;99.90
53204;DHT22;39086;54.424;18.456;2023-08-06T01:50:38;15.40;99.90
53204;DHT22;39086;54.424;18.456;2023-08-06T01:51:41;15.40;99.90
53204;DHT22;39086;54.424;18.456;2023-08-06T01:52:44;15.40;99.90
53204;DHT22;39086;54.424;18.456;2023-08-06T01:53:46;15.30;99.90
53204;DHT22;39086;54.424;18.456;2023-08-06T01:54:49;15.30;99.90
53204;DHT22;39086;54.424;18.456;2023-08-06T01:55:51;15.30;99.90
53204;DHT22;39086;54.424;18.456;2023-08-06T01:56:54;15.30;99.90
53204;DHT22;39086;54.424;18.456;2023-08-06T01:57:57;15.30;99.90
53204;DHT22;39086;54.424;18.456;2023-08-06T01:58:59;15.30;99.90
53204;DHT22;39086;54.424;18.456;2023-08-06T02:00:07;15.20;99.90
53204;DHT22;39086;54.424;18.456;2023-08-06T02:01:10;15.30;99.90
53204;DHT22;39086;54.424;18.456;2023-08-06T02:02:12;15.20;99.90
53204;DHT22;39086;54.424;18.456;2023-08-06T02:03:15;15.20;99.90
53204;DHT22;39086;54.424;18.456;2023-08-06T02:05:21;15.10;99.90
53204;DHT22;39086;54.424;18.456;2023-08-06T02:06:23;15.20;99.90
53204;DHT22;39086;54.424;18.456;2023-08-06T02:07:27;15.20;99.90
53204;DHT22;39086;54.424;18.456;2023-08-06T02:08:30;15.20;99.90
53204;DHT22;39086;54.424;18.456;2023-08-06T02:09:33;15.20;99.90
53204;DHT22;39086;54.424;18.456;2023-08-06T02:10:37;15.10;99.90
53204;DHT22;39086;54.424;18.456;2023-08-06T02:11:40;15.10;99.90
53204;DHT22;39086;54.424;18.456;2023-08-06T02:12:42;15.10;99.90
53204;DHT22;39086;54.424;18.456;2023-08-06T02:13:46;15.10;99.90
53204;DHT22;39086;54.424;18.456;2023-08-06T02:14:48;15.10;99.90
53204;DHT22;39086;54.424;18.456;2023-08-06T02:16:53;15.00;99.90
53204;DHT22;39086;54.424;18.456;2023-08-06T02:17:56;15.10;99.90
53204;DHT22;39086;54.424;18.456;2023-08-06T02:18:58;15.10;99.90
53204;DHT22;39086;54.424;18.456;2023-08-06T02:20:02;15.10;99.90
53204;DHT22;39086;54.424;18.456;2023-08-06T02:21:04;15.10;99.90
53204;DHT22;39086;54.424;18.456;2023-08-06T02:22:07;15.10;99.90
53204;DHT22;39086;54.424;18.456;2023-08-06T02:23:10;15.10;99.90
53204;DHT22;39086;54.424;18.456;2023-08-06T02:24:13;15.10;99.90
53204;DHT22;39086;54.424;18.456;2023-08-06T02:26:19;15.00;99.90
53204;DHT22;39086;54.424;18.456;2023-08-06T02:27:21;15.10;99.90
53204;DHT22;39086;54.424;18.456;2023-08-06T02:29:26;15.00;99.90
53204;DHT22;39086;54.424;18.456;2023-08-06T02:30:29;15.00;99.90
53204;DHT22;39086;54.424;18.456;2023-08-06T02:33:38;15.00;99.90
53204;DHT22;39086;54.424;18.456;2023-08-06T02:34:41;15.10;99.90
53204;DHT22;39086;54.424;18.456;2023-08-06T02:37:48;15.00;99.90
53204;DHT22;39086;54.424;18.456;2023-08-06T02:38:52;15.00;99.90
53204;DHT22;39086;54.424;18.456;2023-08-06T02:39:55;15.00;99.90
53204;DHT22;39086;54.424;18.456;2023-08-06T02:41:59;15.00;99.90
53204;DHT22;39086;54.424;18.456;2023-08-06T02:43:02;15.00;99.90
53204;DHT22;39086;54.424;18.456;2023-08-06T02:44:04;15.10;99.90
53204;DHT22;39086;54.424;18.456;2023-08-06T02:46:10;15.00;99.90
53204;DHT22;39086;54.424;18.456;2023-08-06T02:47:12;15.10;99.90
53204;DHT22;39086;54.424;18.456;2023-08-06T02:49:20;15.00;99.90
53204;DHT22;39086;54.424;18.456;2023-08-06T02:50:23;15.10;99.90
53204;DHT22;39086;54.424;18.456;2023-08-06T02:52:28;15.00;99.90
53204;DHT22;39086;54.424;18.456;2023-08-06T02:53:30;15.10;99.90
53204;DHT22;39086;54.424;18.456;2023-08-06T02:54:35;15.10;99.90
53204;DHT22;39086;54.424;18.456;2023-08-06T03:01:02;15.10;99.90
53204;DHT22;39086;54.424;18.456;2023-08-06T03:02:05;15.10;99.90
53204;DHT22;39086;54.424;18.456;2023-08-06T03:03:09;15.10;99.90
53204;DHT22;39086;54.424;18.456;2023-08-06T03:04:11;15.10;99.90
53204;DHT22;39086;54.424;18.456;2023-08-06T03:06:16;15.00;99.90
53204;DHT22;39086;54.424;18.456;2023-08-06T03:08:22;15.10;99.90
53204;DHT22;39086;54.424;18.456;2023-08-06T03:11:31;15.10;99.90
53204;DHT22;39086;54.424;18.456;2023-08-06T03:13:37;15.10;99.90
53204;DHT22;39086;54.424;18.456;2023-08-06T03:16:45;15.20;99.90
53204;DHT22;39086;54.424;18.456;2023-08-06T03:17:48;15.30;99.90
53204;DHT22;39086;54.424;18.456;2023-08-06T03:19:53;15.20;99.90
53204;DHT22;39086;54.424;18.456;2023-08-06T03:24:05;15.30;99.90
53204;DHT22;39086;54.424;18.456;2023-08-06T03:27:14;15.30;99.90
53204;DHT22;39086;54.424;18.456;2023-08-06T03:29:19;15.40;99.90
53204;DHT22;39086;54.424;18.456;2023-08-06T03:32:28;15.40;99.90
53204;DHT22;39086;54.424;18.456;2023-08-06T03:33:31;15.50;99.90
53204;DHT22;39086;54.424;18.456;2023-08-06T03:34:33;15.50;99.90
53204;DHT22;39086;54.424;18.456;2023-08-06T03:38:45;15.50;99.90
53204;DHT22;39086;54.424;18.456;2023-08-06T04:09:22;15.90;99.90
53204;DHT22;39086;54.424;18.456;2023-08-06T04:10:24;16.00;99.90
53204;DHT22;39086;54.424;18.456;2023-08-06T04:11:27;16.00;99.90
53204;DHT22;39086;54.424;18.456;2023-08-06T04:12:29;16.00;99.90
53204;DHT22;39086;54.424;18.456;2023-08-06T04:13:34;16.00;99.90
53204;DHT22;39086;54.424;18.456;2023-08-06T04:14:36;16.00;99.90
53204;DHT22;39086;54.424;18.456;2023-08-06T04:15:39;16.00;99.90
53204;DHT22;39086;54.424;18.456;2023-08-06T04:16:41;16.10;99.90
53204;DHT22;39086;54.424;18.456;2023-08-06T04:17:44;16.00;99.90
53204;DHT22;39086;54.424;18.456;2023-08-06T04:18:46;16.00;99.90
53204;DHT22;39086;54.424;18.456;2023-08-06T04:19:50;16.10;99.90
53204;DHT22;39086;54.424;18.456;2023-08-06T04:20:53;16.10;99.90
53204;DHT22;39086;54.424;18.456;2023-08-06T04:21:57;16.00;99.90
53204;DHT22;39086;54.424;18.456;2023-08-06T04:22:59;16.00;99.90
53204;DHT22;39086;54.424;18.456;2023-08-06T04:24:02;16.10;99.90
53204;DHT22;39086;54.424;18.456;2023-08-06T04:25:05;16.00;99.90
53204;DHT22;39086;54.424;18.456;2023-08-06T04:26:08;16.10;99.90
53204;DHT22;39086;54.424;18.456;2023-08-06T04:27:11;16.10;99.90
53204;DHT22;39086;54.424;18.456;2023-08-06T04:28:14;16.00;99.90
53204;DHT22;39086;54.424;18.456;2023-08-06T04:29:17;16.00;99.90
53204;DHT22;39086;54.424;18.456;2023-08-06T04:30:20;16.00;99.90
53204;DHT22;39086;54.424;18.456;2023-08-06T04:31:23;16.10;99.90
53204;DHT22;39086;54.424;18.456;2023-08-06T04:32:26;16.00;99.90
53204;DHT22;39086;54.424;18.456;2023-08-06T04:47:14;16.00;99.90
53204;DHT22;39086;54.424;18.456;2023-08-06T04:48:16;16.10;99.90
53204;DHT22;39086;54.424;18.456;2023-08-06T04:49:20;16.10;99.90
53204;DHT22;39086;54.424;18.456;2023-08-06T04:50:23;16.10;99.90
53204;DHT22;39086;54.424;18.456;2023-08-06T04:54:34;16.00;99.90
53204;DHT22;39086;54.424;18.456;2023-08-06T04:55:36;16.10;99.90
53204;DHT22;39086;54.424;18.456;2023-08-06T04:58:45;16.10;99.90
53204;DHT22;39086;54.424;18.456;2023-08-06T05:06:08;16.10;99.90
53204;DHT22;39086;54.424;18.456;2023-08-06T05:07:11;16.20;99.90
53204;DHT22;39086;54.424;18.456;2023-08-06T05:08:14;16.20;99.90
53204;DHT22;39086;54.424;18.456;2023-08-06T05:10:21;16.10;99.90
53204;DHT22;39086;54.424;18.456;2023-08-06T05:13:30;16.10;99.90
53204;DHT22;39086;54.424;18.456;2023-08-06T05:14:32;16.20;99.90
53204;DHT22;39086;54.424;18.456;2023-08-06T05:18:45;16.20;99.90
53204;DHT22;39086;54.424;18.456;2023-08-06T05:19:48;16.30;99.90
53204;DHT22;39086;54.424;18.456;2023-08-06T05:21:54;16.20;99.90
53204;DHT22;39086;54.424;18.456;2023-08-06T05:23:59;16.20;99.90
53204;DHT22;39086;54.424;18.456;2023-08-06T05:25:01;16.40;99.90
53204;DHT22;39086;54.424;18.456;2023-08-06T05:27:07;16.20;99.90
53204;DHT22;39086;54.424;18.456;2023-08-06T05:28:10;16.40;99.90
53204;DHT22;39086;54.424;18.456;2023-08-06T05:29:12;16.40;99.90
53204;DHT22;39086;54.424;18.456;2023-08-06T05:30:15;16.30;99.90
53204;DHT22;39086;54.424;18.456;2023-08-06T05:32:22;16.30;99.90
53204;DHT22;39086;54.424;18.456;2023-08-06T05:33:24;16.40;99.90
53204;DHT22;39086;54.424;18.456;2023-08-06T05:34:27;16.40;99.90
53204;DHT22;39086;54.424;18.456;2023-08-06T05:35:29;16.40;99.90
53204;DHT22;39086;54.424;18.456;2023-08-06T05:38:38;16.30;99.90
53204;DHT22;39086;54.424;18.456;2023-08-06T05:39:40;16.40;99.90
53204;DHT22;39086;54.424;18.456;2023-08-06T05:40:43;16.50;99.90
53204;DHT22;39086;54.424;18.456;2023-08-06T05:41:45;16.50;99.90
53204;DHT22;39086;54.424;18.456;2023-08-06T05:42:48;16.50;99.90
53204;DHT22;39086;54.424;18.456;2023-08-06T05:43:50;16.50;99.90
53204;DHT22;39086;54.424;18.456;2023-08-06T05:44:53;16.50;99.90
53204;DHT22;39086;54.424;18.456;2023-08-06T05:45:56;16.50;99.90
53204;DHT22;39086;54.424;18.456;2023-08-06T05:46:59;16.50;99.90
53204;DHT22;39086;54.424;18.456;2023-08-06T05:49:06;16.50;99.90
53204;DHT22;39086;54.424;18.456;2023-08-06T05:51:11;16.50;99.90
53204;DHT22;39086;54.424;18.456;2023-08-06T05:52:15;16.60;99.90
53204;DHT22;39086;54.424;18.456;2023-08-06T05:54:20;16.60;99.90
53204;DHT22;39086;54.424;18.456;2023-08-06T05:56:25;16.60;99.90
53204;DHT22;39086;54.424;18.456;2023-08-06T05:57:28;16.70;99.90
53204;DHT22;39086;54.424;18.456;2023-08-06T05:58:30;16.70;99.90
53204;DHT22;39086;54.424;18.456;2023-08-06T05:59:33;16.70;99.90
53204;DHT22;39086;54.424;18.456;2023-08-06T06:01:39;16.70;99.90
53204;DHT22;39086;54.424;18.456;2023-08-06T06:03:46;16.70;99.90
53204;DHT22;39086;54.424;18.456;2023-08-06T06:04:48;16.80;99.90
53204;DHT22;39086;54.424;18.456;2023-08-06T06:07:57;16.70;99.90
53204;DHT22;39086;54.424;18.456;2023-08-06T06:08:59;16.80;99.90
53204;DHT22;39086;54.424;18.456;2023-08-06T06:10:02;16.80;99.90
53204;DHT22;39086;54.424;18.456;2023-08-06T06:11:04;16.80;99.90
53204;DHT22;39086;54.424;18.456;2023-08-06T06:12:07;16.80;99.90
53204;DHT22;39086;54.424;18.456;2023-08-06T06:13:09;16.80;99.90
53204;DHT22;39086;54.424;18.456;2023-08-06T06:15:15;16.80;99.90
53204;DHT22;39086;54.424;18.456;2023-08-06T06:16:18;16.90;99.90
53204;DHT22;39086;54.424;18.456;2023-08-06T06:19:27;16.70;99.90
53204;DHT22;39086;54.424;18.456;2023-08-06T06:20:32;16.90;99.90
53204;DHT22;39086;54.424;18.456;2023-08-06T06:21:34;16.80;99.90
53204;DHT22;39086;54.424;18.456;2023-08-06T06:22:37;16.80;99.90
53204;DHT22;39086;54.424;18.456;2023-08-06T06:23:39;16.80;99.90
53204;DHT22;39086;54.424;18.456;2023-08-06T06:24:42;16.90;99.90
53204;DHT22;39086;54.424;18.456;2023-08-06T06:25:47;16.80;99.90
53204;DHT22;39086;54.424;18.456;2023-08-06T06:26:50;16.90;99.90
53204;DHT22;39086;54.424;18.456;2023-08-06T06:33:08;16.80;99.90
53204;DHT22;39086;54.424;18.456;2023-08-06T06:34:11;16.80;99.90
53204;DHT22;39086;54.424;18.456;2023-08-06T06:35:14;16.80;99.90
53204;DHT22;39086;54.424;18.456;2023-08-06T06:36:17;16.90;99.90
53204;DHT22;39086;54.424;18.456;2023-08-06T06:37:19;16.90;99.90
53204;DHT22;39086;54.424;18.456;2023-08-06T06:38:22;16.90;99.90
53204;DHT22;39086;54.424;18.456;2023-08-06T06:39:24;16.90;99.90
53204;DHT22;39086;54.424;18.456;2023-08-06T06:40:27;17.00;99.90
53204;DHT22;39086;54.424;18.456;2023-08-06T06:42:34;16.80;99.90
53204;DHT22;39086;54.424;18.456;2023-08-06T06:43:37;16.90;99.90
53204;DHT22;39086;54.424;18.456;2023-08-06T06:48:53;16.80;99.90
53204;DHT22;39086;54.424;18.456;2023-08-06T06:49:55;17.00;99.90
53204;DHT22;39086;54.424;18.456;2023-08-06T06:59:22;17.00;99.90
53204;DHT22;39086;54.424;18.456;2023-08-06T07:00:24;17.20;99.90
53204;DHT22;39086;54.424;18.456;2023-08-06T07:16:15;17.30;99.90
53204;DHT22;39086;54.424;18.456;2023-08-06T07:17:17;17.30;99.90
53204;DHT22;39086;54.424;18.456;2023-08-06T07:18:20;17.40;99.90
53204;DHT22;39086;54.424;18.456;2023-08-06T07:19:23;17.40;99.90
53204;DHT22;39086;54.424;18.456;2023-08-06T07:20:26;17.40;99.90
53204;DHT22;39086;54.424;18.456;2023-08-06T07:22:35;17.30;99.90
53204;DHT22;39086;54.424;18.456;2023-08-06T07:25:43;17.40;99.90
53204;DHT22;39086;54.424;18.456;2023-08-06T07:26:46;17.40;99.90
53204;DHT22;39086;54.424;18.456;2023-08-06T07:27:48;17.50;99.90
53204;DHT22;39086;54.424;18.456;2023-08-06T07:28:51;17.50;99.90
53204;DHT22;39086;54.424;18.456;2023-08-06T07:29:54;17.60;99.90
53204;DHT22;39086;54.424;18.456;2023-08-06T07:30:57;17.60;99.90
53204;DHT22;39086;54.424;18.456;2023-08-06T07:33:02;17.50;99.90
53204;DHT22;39086;54.424;18.456;2023-08-06T07:34:04;17.70;99.90
53204;DHT22;39086;54.424;18.456;2023-08-06T07:35:08;17.60;99.90
53204;DHT22;39086;54.424;18.456;2023-08-06T07:36:14;17.70;99.90
53204;DHT22;39086;54.424;18.456;2023-08-06T07:37:18;17.70;99.90
53204;DHT22;39086;54.424;18.456;2023-08-06T07:38:21;17.70;99.90
53204;DHT22;39086;54.424;18.456;2023-08-06T07:39:24;17.80;99.90
53204;DHT22;39086;54.424;18.456;2023-08-06T07:40:26;17.80;99.90
53204;DHT22;39086;54.424;18.456;2023-08-06T07:41:30;17.70;99.90
53204;DHT22;39086;54.424;18.456;2023-08-06T07:42:32;17.80;99.90
53204;DHT22;39086;54.424;18.456;2023-08-06T07:45:42;17.70;99.90
53204;DHT22;39086;54.424;18.456;2023-08-06T07:46:44;17.90;99.90
53204;DHT22;39086;54.424;18.456;2023-08-06T07:47:47;17.90;99.90
53204;DHT22;39086;54.424;18.456;2023-08-06T07:48:49;17.90;99.90
53204;DHT22;39086;54.424;18.456;2023-08-06T07:49:52;17.90;99.90
53204;DHT22;39086;54.424;18.456;2023-08-06T07:53:00;17.80;99.90
53204;DHT22;39086;54.424;18.456;2023-08-06T07:54:06;17.90;99.90
53204;DHT22;39086;54.424;18.456;2023-08-06T07:57:14;17.90;99.90
53204;DHT22;39086;54.424;18.456;2023-08-06T07:58:17;18.00;99.90
53204;DHT22;39086;54.424;18.456;2023-08-06T07:59:19;18.00;99.90
53204;DHT22;39086;54.424;18.456;2023-08-06T08:00:22;18.00;99.90
53204;DHT22;39086;54.424;18.456;2023-08-06T08:06:41;18.00;99.90
53204;DHT22;39086;54.424;18.456;2023-08-06T08:07:43;18.10;99.90
53204;DHT22;39086;54.424;18.456;2023-08-06T08:18:17;18.20;99.90
53204;DHT22;39086;54.424;18.456;2023-08-06T08:19:21;18.30;99.90
53204;DHT22;39086;54.424;18.456;2023-08-06T08:20:23;18.30;99.90
53204;DHT22;39086;54.424;18.456;2023-08-06T08:21:26;18.30;99.90
53204;DHT22;39086;54.424;18.456;2023-08-06T08:22:28;18.30;99.90
53204;DHT22;39086;54.424;18.456;2023-08-06T08:23:31;18.30;99.90
53204;DHT22;39086;54.424;18.456;2023-08-06T08:25:38;18.20;99.90
53204;DHT22;39086;54.424;18.456;2023-08-06T08:26:40;18.30;99.90
53204;DHT22;39086;54.424;18.456;2023-08-06T08:27:43;18.30;99.90
53204;DHT22;39086;54.424;18.456;2023-08-06T08:28:45;18.30;99.90
53204;DHT22;39086;54.424;18.456;2023-08-06T08:29:48;18.30;99.90
53204;DHT22;39086;54.424;18.456;2023-08-06T08:30:50;18.30;99.90
53204;DHT22;39086;54.424;18.456;2023-08-06T08:31:53;18.30;99.90
53204;DHT22;39086;54.424;18.456;2023-08-06T08:32:56;18.40;99.90
53204;DHT22;39086;54.424;18.456;2023-08-06T08:35:03;18.40;99.90
53204;DHT22;39086;54.424;18.456;2023-08-06T08:36:06;18.40;99.90
53204;DHT22;39086;54.424;18.456;2023-08-06T08:37:08;18.40;99.90
53204;DHT22;39086;54.424;18.456;2023-08-06T08:38:11;18.40;99.90
53204;DHT22;39086;54.424;18.456;2023-08-06T08:40:16;18.40;99.90
53204;DHT22;39086;54.424;18.456;2023-08-06T08:42:24;18.40;99.90
53204;DHT22;39086;54.424;18.456;2023-08-06T08:43:27;18.40;99.90
53204;DHT22;39086;54.424;18.456;2023-08-06T08:44:29;18.40;99.90
53204;DHT22;39086;54.424;18.456;2023-08-06T08:46:38;18.40;99.90
53204;DHT22;39086;54.424;18.456;2023-08-06T08:48:45;18.40;99.90
53204;DHT22;39086;54.424;18.456;2023-08-06T08:49:49;18.40;99.90
53204;DHT22;39086;54.424;18.456;2023-08-06T08:51:57;18.30;99.90
53204;DHT22;39086;54.424;18.456;2023-08-06T08:54:04;18.30;99.90
53204;DHT22;39086;54.424;18.456;2023-08-06T08:55:07;18.40;99.90
53204;DHT22;39086;54.424;18.456;2023-08-06T08:56:13;18.30;99.90
53204;DHT22;39086;54.424;18.456;2023-08-06T08:58:20;18.30;99.90
53204;DHT22;39086;54.424;18.456;2023-08-06T09:15:26;18.30;99.90
53204;DHT22;39086;54.424;18.456;2023-08-06T09:16:28;18.40;99.90
53204;DHT22;39086;54.424;18.456;2023-08-06T09:17:31;18.40;99.90
53204;DHT22;39086;54.424;18.456;2023-08-06T09:18:33;18.40;99.90
53204;DHT22;39086;54.424;18.456;2023-08-06T09:19:37;18.40;99.90
53204;DHT22;39086;54.424;18.456;2023-08-06T09:20:39;18.40;99.90
53204;DHT22;39086;54.424;18.456;2023-08-06T09:21:43;18.50;99.90
53204;DHT22;39086;54.424;18.456;2023-08-06T09:22:45;18.50;99.90
53204;DHT22;39086;54.424;18.456;2023-08-06T09:23:49;18.50;99.90
53204;DHT22;39086;54.424;18.456;2023-08-06T09:24:51;18.50;99.90
53204;DHT22;39086;54.424;18.456;2023-08-06T09:25:54;18.50;99.90
53204;DHT22;39086;54.424;18.456;2023-08-06T09:26:56;18.50;99.90
53204;DHT22;39086;54.424;18.456;2023-08-06T09:28:00;18.50;99.90
53204;DHT22;39086;54.424;18.456;2023-08-06T09:29:05;18.50;99.90
53204;DHT22;39086;54.424;18.456;2023-08-06T09:30:09;18.50;99.90
53204;DHT22;39086;54.424;18.456;2023-08-06T09:31:11;18.50;99.90
53204;DHT22;39086;54.424;18.456;2023-08-06T09:32:14;18.50;99.90
53204;DHT22;39086;54.424;18.456;2023-08-06T09:33:18;18.50;99.90
53204;DHT22;39086;54.424;18.456;2023-08-06T09:34:22;18.50;99.90
53204;DHT22;39086;54.424;18.456;2023-08-06T09:35:24;18.60;99.90
53204;DHT22;39086;54.424;18.456;2023-08-06T09:36:28;18.50;99.90
53204;DHT22;39086;54.424;18.456;2023-08-06T09:37:35;18.60;99.90
53204;DHT22;39086;54.424;18.456;2023-08-06T09:38:39;18.60;99.90
53204;DHT22;39086;54.424;18.456;2023-08-06T09:39:41;18.60;99.90
53204;DHT22;39086;54.424;18.456;2023-08-06T09:40:44;18.70;99.90
53204;DHT22;39086;54.424;18.456;2023-08-06T09:41:47;18.70;99.90
53204;DHT22;39086;54.424;18.456;2023-08-06T09:49:40;18.80;99.90
53204;DHT22;39086;54.424;18.456;2023-08-06T09:50:42;18.90;99.90
53204;DHT22;39086;54.424;18.456;2023-08-06T09:51:45;18.90;99.90
53204;DHT22;39086;54.424;18.456;2023-08-06T09:52:48;18.80;99.90
53204;DHT22;39086;54.424;18.456;2023-08-06T09:53:53;18.90;99.90
53204;DHT22;39086;54.424;18.456;2023-08-06T09:54:55;18.80;99.90
53204;DHT22;39086;54.424;18.456;2023-08-06T09:55:58;18.90;99.90
53204;DHT22;39086;54.424;18.456;2023-08-06T09:57:01;18.80;99.90
53204;DHT22;39086;54.424;18.456;2023-08-06T09:58:04;18.90;99.90
53204;DHT22;39086;54.424;18.456;2023-08-06T09:59:07;18.90;99.90
53204;DHT22;39086;54.424;18.456;2023-08-06T10:00:12;18.80;99.90
53204;DHT22;39086;54.424;18.456;2023-08-06T10:01:16;18.80;99.90
53204;DHT22;39086;54.424;18.456;2023-08-06T10:02:21;18.80;99.90
53204;DHT22;39086;54.424;18.456;2023-08-06T10:03:28;18.80;99.90
53204;DHT22;39086;54.424;18.456;2023-08-06T10:04:32;18.80;99.90
53204;DHT22;39086;54.424;18.456;2023-08-06T10:05:43;18.80;99.90
53204;DHT22;39086;54.424;18.456;2023-08-06T10:06:50;18.80;99.90
53204;DHT22;39086;54.424;18.456;2023-08-06T10:07:53;18.80;99.90
53204;DHT22;39086;54.424;18.456;2023-08-06T10:08:57;18.80;99.90
53204;DHT22;39086;54.424;18.456;2023-08-06T10:09:59;18.80;99.90
53204;DHT22;39086;54.424;18.456;2023-08-06T10:11:03;18.80;99.90
53204;DHT22;39086;54.424;18.456;2023-08-06T10:12:06;18.80;99.90
53204;DHT22;39086;54.424;18.456;2023-08-06T10:13:09;18.80;99.90
53204;DHT22;39086;54.424;18.456;2023-08-06T10:14:15;18.80;99.90
53204;DHT22;39086;54.424;18.456;2023-08-06T10:15:23;18.80;99.90
53204;DHT22;39086;54.424;18.456;2023-08-06T10:16:27;18.80;99.90
53204;DHT22;39086;54.424;18.456;2023-08-06T10:17:31;18.80;99.90
53204;DHT22;39086;54.424;18.456;2023-08-06T10:18:52;18.90;99.90